sensor_id;sensor_type;location;lat;lon;timestamp;temperature;humidity
12889;DHT22;56848;49.896;11.424;2022-12-10T05:01:22;-2.70;99.90
12889;DHT22;56848;49.896;11.424;2022-12-10T05:03:47;-2.60;99.90
12889;DHT22;56848;49.896;11.424;2022-12-10T05:06:15;-2.60;99.90
12889;DHT22;56848;49.896;11.424;2022-12-10T05:08:41;-2.60;99.90
12889;DHT22;56848;49.896;11.424;2022-12-10T05:11:21;-2.60;99.90
12889;DHT22;56848;49.896;11.424;2022-12-10T05:13:48;-2.60;99.90
12889;DHT22;56848;49.896;11.424;2022-12-10T05:16:16;-2.60;99.90
12889;DHT22;56848;49.896;11.424;2022-12-10T05:18:43;-2.60;99.90
12889;DHT22;56848;49.896;11.424;2022-12-10T05:21:11;-2.60;99.90
12889;DHT22;56848;49.896;11.424;2022-12-10T05:23:39;-2.60;99.90
12889;DHT22;56848;49.896;11.424;2022-12-10T05:26:11;-2.60;99.90
12889;DHT22;56848;49.896;11.424;2022-12-10T05:28:43;-2.60;99.90
12889;DHT22;56848;49.896;11.424;2022-12-10T05:31:15;-2.50;99.90
12889;DHT22;56848;49.896;11.424;2022-12-10T05:33:42;-2.40;99.90
12889;DHT22;56848;49.896;11.424;2022-12-10T05:36:10;-2.40;99.90
12889;DHT22;56848;49.896;11.424;2022-12-10T05:38:36;-2.30;99.90
12889;DHT22;56848;49.896;11.424;2022-12-10T05:41:10;-2.30;99.90
12889;DHT22;56848;49.896;11.424;2022-12-10T05:43:37;-2.30;99.90
12889;DHT22;56848;49.896;11.424;2022-12-10T05:46:05;-2.30;99.90
12889;DHT22;56848;49.896;11.424;2022-12-10T05:48:31;-2.30;99.90
12889;DHT22;56848;49.896;11.424;2022-12-10T05:50:57;-2.40;99.90
12889;DHT22;56848;49.896;11.424;2022-12-10T05:53:23;-2.50;99.90
12889;DHT22;56848;49.896;11.424;2022-12-10T05:55:48;-2.50;99.90
12889;DHT22;56848;49.896;11.424;2022-12-10T05:58:14;-2.40;99.90
12889;DHT22;56848;49.896;11.424;2022-12-10T06:00:41;-2.40;99.90
12889;DHT22;56848;49.896;11.424;2022-12-10T06:03:07;-2.40;99.90
12889;DHT22;56848;49.896;11.424;2022-12-10T06:05:37;-2.30;99.90
12889;DHT22;56848;49.896;11.424;2022-12-10T06:08:03;-2.30;99.90
12889;DHT22;56848;49.896;11.424;2022-12-10T06:10:29;-2.20;99.90
12889;DHT22;56848;49.896;11.424;2022-12-10T06:12:54;-2.10;99.90
12889;DHT22;56848;49.896;11.424;2022-12-10T06:15:20;-2.10;99.90
12889;DHT22;56848;49.896;11.424;2022-12-10T06:17:45;-2.10;99.90
12889;DHT22;56848;49.896;11.424;2022-12-10T06:20:11;-2.10;99.90
12889;DHT22;56848;49.896;11.424;2022-12-10T06:22:36;-2.10;99.90
12889;DHT22;56848;49.896;11.424;2022-12-10T06:25:02;-2.10;99.90
12889;DHT22;56848;49.896;11.424;2022-12-10T06:27:30;-2.20;99.90
12889;DHT22;56848;49.896;11.424;2022-12-10T06:29:56;-2.10;99.90
12889;DHT22;56848;49.896;11.424;2022-12-10T06:32:22;-2.20;99.90
12889;DHT22;56848;49.896;11.424;2022-12-10T06:34:47;-2.20;99.90
12889;DHT22;56848;49.896;11.424;2022-12-10T06:37:13;-2.20;99.90
12889;DHT22;56848;49.896;11.424;2022-12-10T06:39:38;-2.20;99.90
12889;DHT22;56848;49.896;11.424;2022-12-10T06:42:04;-2.20;99.90
12889;DHT22;56848;49.896;11.424;2022-12-10T06:44:31;-2.10;99.90
12889;DHT22;56848;49.896;11.424;2022-12-10T06:46:56;-2.20;99.90
12889;DHT22;56848;49.896;11.424;2022-12-10T06:49:22;-2.30;99.90
12889;DHT22;56848;49.896;11.424;2022-12-10T06:51:47;-2.20;99.90
12889;DHT22;56848;49.896;11.424;2022-12-10T06:54:13;-2.20;99.90
12889;DHT22;56848;49.896;11.424;2022-12-10T06:56:39;-2.10;99.90
12889;DHT22;56848;49.896;11.424;2022-12-10T06:59:05;-2.10;99.90
12889;DHT22;56848;49.896;11.424;2022-12-10T07:01:34;-2.10;99.90
12889;DHT22;56848;49.896;11.424;2022-12-10T07:03:59;-2.10;99.90
12889;DHT22;56848;49.896;11.424;2022-12-10T07:06:26;-2.00;99.90
12889;DHT22;56848;49.896;11.424;2022-12-10T07:08:53;-2.10;99.90
12889;DHT22;56848;49.896;11.424;2022-12-10T07:11:21;-2.10;99.90
12889;DHT22;56848;49.896;11.424;2022-12-10T07:13:47;-2.10;99.90
12889;DHT22;56848;49.896;11.424;2022-12-10T07:18:44;-2.20;99.90
12889;DHT22;56848;49.896;11.424;2022-12-10T07:21:34;-2.20;99.90
12889;DHT22;56848;49.896;11.424;2022-12-10T07:24:03;-2.10;99.90
12889;DHT22;56848;49.896;11.424;2022-12-10T07:26:30;-2.10;99.90
12889;DHT22;56848;49.896;11.424;2022-12-10T07:28:56;-2.10;99.90
12889;DHT22;56848;49.896;11.424;2022-12-10T07:31:22;-2.10;99.90
12889;DHT22;56848;49.896;11.424;2022-12-10T07:33:48;-2.00;99.90
12889;DHT22;56848;49.896;11.424;2022-12-10T07:36:14;-2.00;99.90
12889;DHT22;56848;49.896;11.424;2022-12-10T07:38:40;-2.00;99.90
12889;DHT22;56848;49.896;11.424;2022-12-10T07:41:12;-1.90;99.90
12889;DHT22;56848;49.896;11.424;2022-12-10T07:43:39;-1.90;99.90
12889;DHT22;56848;49.896;11.424;2022-12-10T07:46:14;-1.90;99.90
12889;DHT22;56848;49.896;11.424;2022-12-10T07:48:41;-1.90;99.90
12889;DHT22;56848;49.896;11.424;2022-12-10T07:51:08;-1.90;99.90
12889;DHT22;56848;49.896;11.424;2022-12-10T07:53:34;-1.80;99.90
12889;DHT22;56848;49.896;11.424;2022-12-10T07:56:00;-1.90;99.90
12889;DHT22;56848;49.896;11.424;2022-12-10T07:58:26;-1.90;99.90
12889;DHT22;56848;49.896;11.424;2022-12-10T08:00:51;-1.80;99.90
12889;DHT22;56848;49.896;11.424;2022-12-10T08:03:17;-1.80;99.90
12889;DHT22;56848;49.896;11.424;2022-12-10T08:05:42;-1.80;99.90
12889;DHT22;56848;49.896;11.424;2022-12-10T08:08:08;-1.70;99.90
12889;DHT22;56848;49.896;11.424;2022-12-10T08:10:38;-1.60;99.90
12889;DHT22;56848;49.896;11.424;2022-12-10T08:13:04;-1.60;99.90
12889;DHT22;56848;49.896;11.424;2022-12-10T08:15:30;-1.50;99.90
12889;DHT22;56848;49.896;11.424;2022-12-10T08:17:56;-1.50;99.90
12889;DHT22;56848;49.896;11.424;2022-12-10T08:20:23;-1.50;99.90
12889;DHT22;56848;49.896;11.424;2022-12-10T08:22:51;-1.50;99.90
12889;DHT22;56848;49.896;11.424;2022-12-10T08:25:17;-1.40;99.90
12889;DHT22;56848;49.896;11.424;2022-12-10T08:27:43;-1.40;99.90
12889;DHT22;56848;49.896;11.424;2022-12-10T08:30:09;-1.30;99.90
12889;DHT22;56848;49.896;11.424;2022-12-10T08:32:34;-1.30;99.90
12889;DHT22;56848;49.896;11.424;2022-12-10T08:35:00;-1.30;99.90
12889;DHT22;56848;49.896;11.424;2022-12-10T08:37:26;-1.30;99.90
12889;DHT22;56848;49.896;11.424;2022-12-10T08:39:51;-1.20;99.90
12889;DHT22;56848;49.896;11.424;2022-12-10T08:42:17;-1.10;99.90
12889;DHT22;56848;49.896;11.424;2022-12-10T08:44:43;-1.10;99.90
12889;DHT22;56848;49.896;11.424;2022-12-10T08:47:08;-1.00;99.90
12889;DHT22;56848;49.896;11.424;2022-12-10T08:49:34;-1.00;99.90
12889;DHT22;56848;49.896;11.424;2022-12-10T08:52:00;-1.00;99.90
12889;DHT22;56848;49.896;11.424;2022-12-10T08:54:25;-1.00;99.90
12889;DHT22;56848;49.896;11.424;2022-12-10T08:56:51;-1.20;99.90
12889;DHT22;56848;49.896;11.424;2022-12-10T08:59:16;-1.10;99.90
12889;DHT22;56848;49.896;11.424;2022-12-10T09:01:42;-1.20;99.90
12889;DHT22;56848;49.896;11.424;2022-12-10T09:04:08;-1.20;99.90
12889;DHT22;56848;49.896;11.424;2022-12-10T09:06:33;-1.10;99.90
12889;DHT22;56848;49.896;11.424;2022-12-10T09:08:59;-1.00;99.90
12889;DHT22;56848;49.896;11.424;2022-12-10T09:11:27;-0.80;99.90
12889;DHT22;56848;49.896;11.424;2022-12-10T09:13:54;-0.80;99.90
12889;DHT22;56848;49.896;11.424;2022-12-10T09:16:20;-0.70;99.90
12889;DHT22;56848;49.896;11.424;2022-12-10T09:18:46;-0.70;99.90
12889;DHT22;56848;49.896;11.424;2022-12-10T09:21:14;-0.70;99.90
12889;DHT22;56848;49.896;11.424;2022-12-10T09:23:41;-0.70;99.90
12889;DHT22;56848;49.896;11.424;2022-12-10T09:26:08;-0.70;99.90
12889;DHT22;56848;49.896;11.424;2022-12-10T09:28:35;-0.60;99.90
12889;DHT22;56848;49.896;11.424;2022-12-10T09:31:01;-0.60;99.90
12889;DHT22;56848;49.896;11.424;2022-12-10T09:33:28;-0.60;99.90
12889;DHT22;56848;49.896;11.424;2022-12-10T09:35:54;-0.60;99.90
12889;DHT22;56848;49.896;11.424;2022-12-10T09:38:19;-0.60;99.90
12889;DHT22;56848;49.896;11.424;2022-12-10T09:40:59;-0.60;99.90
12889;DHT22;56848;49.896;11.424;2022-12-10T09:43:45;-0.60;99.90
12889;DHT22;56848;49.896;11.424;2022-12-10T09:51:38;-0.50;99.90
12889;DHT22;56848;49.896;11.424;2022-12-10T09:54:19;-0.50;99.90
12889;DHT22;56848;49.896;11.424;2022-12-10T09:56:48;-0.40;99.90
12889;DHT22;56848;49.896;11.424;2022-12-10T09:59:31;-0.40;99.90
12889;DHT22;56848;49.896;11.424;2022-12-10T10:02:24;-0.40;99.90
12889;DHT22;56848;49.896;11.424;2022-12-10T10:04:54;-0.50;99.90
12889;DHT22;56848;49.896;11.424;2022-12-10T10:07:24;-0.60;99.90
12889;DHT22;56848;49.896;11.424;2022-12-10T10:09:56;-0.50;99.90
12889;DHT22;56848;49.896;11.424;2022-12-10T10:12:23;-0.50;99.90
12889;DHT22;56848;49.896;11.424;2022-12-10T10:14:51;-0.50;99.90
12889;DHT22;56848;49.896;11.424;2022-12-10T10:17:26;-0.50;99.90
12889;DHT22;56848;49.896;11.424;2022-12-10T10:19:53;-0.40;99.90
12889;DHT22;56848;49.896;11.424;2022-12-10T10:22:18;-0.50;99.90
12889;DHT22;56848;49.896;11.424;2022-12-10T10:24:45;-0.40;99.90
12889;DHT22;56848;49.896;11.424;2022-12-10T10:29:41;-0.40;99.90
12889;DHT22;56848;49.896;11.424;2022-12-10T10:32:21;-0.30;99.90
12889;DHT22;56848;49.896;11.424;2022-12-10T10:34:56;-0.40;99.90
12889;DHT22;56848;49.896;11.424;2022-12-10T10:37:28;-0.30;99.90
12889;DHT22;56848;49.896;11.424;2022-12-10T10:39:55;-0.40;99.90
12889;DHT22;56848;49.896;11.424;2022-12-10T10:42:40;-0.40;99.90
12889;DHT22;56848;49.896;11.424;2022-12-10T10:45:33;-0.30;99.90
12889;DHT22;56848;49.896;11.424;2022-12-10T10:48:17;-0.30;99.90
12889;DHT22;56848;49.896;11.424;2022-12-10T10:50:44;-0.30;99.90
12889;DHT22;56848;49.896;11.424;2022-12-10T10:56:11;-0.30;99.90
12889;DHT22;56848;49.896;11.424;2022-12-10T11:01:54;-0.30;99.90
12889;DHT22;56848;49.896;11.424;2022-12-10T11:04:36;-0.40;99.90
12889;DHT22;56848;49.896;11.424;2022-12-10T11:07:04;-0.40;99.90
12889;DHT22;56848;49.896;11.424;2022-12-10T11:09:33;-0.30;99.90
12889;DHT22;56848;49.896;11.424;2022-12-10T11:12:10;-0.40;99.90
12889;DHT22;56848;49.896;11.424;2022-12-10T11:14:46;-0.40;99.90
12889;DHT22;56848;49.896;11.424;2022-12-10T11:22:52;-0.30;99.90
12889;DHT22;56848;49.896;11.424;2022-12-10T11:25:23;-0.40;99.90
12889;DHT22;56848;49.896;11.424;2022-12-10T11:28:13;-0.40;99.90
12889;DHT22;56848;49.896;11.424;2022-12-10T11:30:50;-0.40;99.90
12889;DHT22;56848;49.896;11.424;2022-12-10T11:33:26;-0.30;99.90
12889;DHT22;56848;49.896;11.424;2022-12-10T11:49:57;-0.30;99.90
12889;DHT22;56848;49.896;11.424;2022-12-10T11:55:31;-0.30;99.90
12889;DHT22;56848;49.896;11.424;2022-12-10T12:06:10;-0.40;99.90
12889;DHT22;56848;49.896;11.424;2022-12-10T12:14:25;-0.40;99.90
12889;DHT22;56848;49.896;11.424;2022-12-10T12:17:02;-0.30;99.90
12889;DHT22;56848;49.896;11.424;2022-12-10T12:22:02;-0.40;99.90
12889;DHT22;56848;49.896;11.424;2022-12-10T12:24:42;-0.40;99.90
12889;DHT22;56848;49.896;11.424;2022-12-10T12:27:16;-0.30;99.90
12889;DHT22;56848;49.896;11.424;2022-12-10T12:41:21;-0.20;99.90
12889;DHT22;56848;49.896;11.424;2022-12-10T12:46:48;-0.20;99.90
12889;DHT22;56848;49.896;11.424;2022-12-10T12:49:27;-0.20;99.90
12889;DHT22;56848;49.896;11.424;2022-12-10T12:54:42;-0.20;99.90
12889;DHT22;56848;49.896;11.424;2022-12-10T12:57:34;-0.20;99.90
12889;DHT22;56848;49.896;11.424;2022-12-10T13:00:09;-0.10;99.90
12889;DHT22;56848;49.896;11.424;2022-12-10T13:05:04;-0.10;99.90
12889;DHT22;56848;49.896;11.424;2022-12-10T13:07:32;-0.10;99.90
12889;DHT22;56848;49.896;11.424;2022-12-10T13:15:35;-0.10;99.90
12889;DHT22;56848;49.896;11.424;2022-12-10T13:20:47;-0.10;99.90
12889;DHT22;56848;49.896;11.424;2022-12-10T13:23:28;-0.10;99.90
12889;DHT22;56848;49.896;11.424;2022-12-10T13:25:57;0.00;99.90
12889;DHT22;56848;49.896;11.424;2022-12-10T13:39:35;-0.10;99.90
12889;DHT22;56848;49.896;11.424;2022-12-10T13:50:02;-0.30;99.90
12889;DHT22;56848;49.896;11.424;2022-12-10T13:58:01;-0.30;99.90
12889;DHT22;56848;49.896;11.424;2022-12-10T14:01:02;-0.30;99.90
12889;DHT22;56848;49.896;11.424;2022-12-10T14:06:25;-0.40;99.90
12889;DHT22;56848;49.896;11.424;2022-12-10T14:08:56;-0.40;99.90
12889;DHT22;56848;49.896;11.424;2022-12-10T14:11:26;-0.40;99.90
12889;DHT22;56848;49.896;11.424;2022-12-10T14:13:56;-0.40;99.90
12889;DHT22;56848;49.896;11.424;2022-12-10T14:16:28;-0.40;99.90
12889;DHT22;56848;49.896;11.424;2022-12-10T14:18:59;-0.40;99.90
12889;DHT22;56848;49.896;11.424;2022-12-10T14:21:32;-0.50;99.90
12889;DHT22;56848;49.896;11.424;2022-12-10T14:23:58;-0.50;99.90
12889;DHT22;56848;49.896;11.424;2022-12-10T14:26:33;-0.40;99.90
12889;DHT22;56848;49.896;11.424;2022-12-10T14:31:44;-0.50;99.90
12889;DHT22;56848;49.896;11.424;2022-12-10T14:34:21;-0.50;99.90
12889;DHT22;56848;49.896;11.424;2022-12-10T14:36:56;-0.50;99.90
12889;DHT22;56848;49.896;11.424;2022-12-10T14:39:30;-0.50;99.90
12889;DHT22;56848;49.896;11.424;2022-12-10T14:42:03;-0.60;99.90
12889;DHT22;56848;49.896;11.424;2022-12-10T14:44:30;-0.60;99.90
12889;DHT22;56848;49.896;11.424;2022-12-10T14:49:41;-0.60;99.90
12889;DHT22;56848;49.896;11.424;2022-12-10T14:52:12;-0.60;99.90
12889;DHT22;56848;49.896;11.424;2022-12-10T14:54:38;-0.60;99.90
12889;DHT22;56848;49.896;11.424;2022-12-10T14:57:07;-0.60;99.90
12889;DHT22;56848;49.896;11.424;2022-12-10T14:59:45;-0.70;99.90
12889;DHT22;56848;49.896;11.424;2022-12-10T15:02:18;-0.60;99.90
12889;DHT22;56848;49.896;11.424;2022-12-10T15:04:46;-0.70;99.90
12889;DHT22;56848;49.896;11.424;2022-12-10T15:07:15;-0.70;99.90
12889;DHT22;56848;49.896;11.424;2022-12-10T15:09:42;-0.70;99.90
12889;DHT22;56848;49.896;11.424;2022-12-10T15:12:29;-0.70;99.90
12889;DHT22;56848;49.896;11.424;2022-12-10T15:15:02;-0.70;99.90
12889;DHT22;56848;49.896;11.424;2022-12-10T15:17:41;-0.70;99.90
12889;DHT22;56848;49.896;11.424;2022-12-10T15:20:19;-0.80;99.90
12889;DHT22;56848;49.896;11.424;2022-12-10T15:22:45;-0.80;99.90
12889;DHT22;56848;49.896;11.424;2022-12-10T15:25:25;-0.90;99.90
12889;DHT22;56848;49.896;11.424;2022-12-10T15:27:55;-0.90;99.90
12889;DHT22;56848;49.896;11.424;2022-12-10T15:30:36;-1.00;99.90
12889;DHT22;56848;49.896;11.424;2022-12-10T15:33:29;-1.00;99.90
12889;DHT22;56848;49.896;11.424;2022-12-10T15:35:58;-1.00;99.90
12889;DHT22;56848;49.896;11.424;2022-12-10T15:38:24;-1.10;99.90
12889;DHT22;56848;49.896;11.424;2022-12-10T15:40:50;-1.10;99.90
12889;DHT22;56848;49.896;11.424;2022-12-10T15:45:49;-1.20;99.90
12889;DHT22;56848;49.896;11.424;2022-12-10T15:48:14;-1.20;99.90
12889;DHT22;56848;49.896;11.424;2022-12-10T15:50:44;-1.20;99.90
12889;DHT22;56848;49.896;11.424;2022-12-10T15:53:19;-1.20;99.90
12889;DHT22;56848;49.896;11.424;2022-12-10T15:55:47;-1.20;99.90
12889;DHT22;56848;49.896;11.424;2022-12-10T15:58:13;-1.30;99.90
12889;DHT22;56848;49.896;11.424;2022-12-10T16:00:39;-1.20;99.90
12889;DHT22;56848;49.896;11.424;2022-12-10T16:03:11;-1.20;99.90
12889;DHT22;56848;49.896;11.424;2022-12-10T16:05:38;-1.20;99.90
12889;DHT22;56848;49.896;11.424;2022-12-10T16:08:25;-1.30;99.90
12889;DHT22;56848;49.896;11.424;2022-12-10T16:10:54;-1.30;99.90
12889;DHT22;56848;49.896;11.424;2022-12-10T16:13:24;-1.30;99.90
12889;DHT22;56848;49.896;11.424;2022-12-10T16:15:58;-1.30;99.90
12889;DHT22;56848;49.896;11.424;2022-12-10T16:18:25;-1.30;99.90
12889;DHT22;56848;49.896;11.424;2022-12-10T16:20:51;-1.30;99.90
12889;DHT22;56848;49.896;11.424;2022-12-10T16:23:17;-1.40;99.90
12889;DHT22;56848;49.896;11.424;2022-12-10T16:25:43;-1.40;99.90
12889;DHT22;56848;49.896;11.424;2022-12-10T16:28:14;-1.40;99.90
12889;DHT22;56848;49.896;11.424;2022-12-10T16:30:44;-1.40;99.90
12889;DHT22;56848;49.896;11.424;2022-12-10T16:33:10;-1.40;99.90
12889;DHT22;56848;49.896;11.424;2022-12-10T16:35:36;-1.40;99.90
12889;DHT22;56848;49.896;11.424;2022-12-10T16:38:02;-1.40;99.90
12889;DHT22;56848;49.896;11.424;2022-12-10T16:40:28;-1.40;99.90
12889;DHT22;56848;49.896;11.424;2022-12-10T16:42:55;-1.40;99.90
12889;DHT22;56848;49.896;11.424;2022-12-10T16:47:47;-1.50;99.90
12889;DHT22;56848;49.896;11.424;2022-12-10T16:50:14;-1.50;99.90
12889;DHT22;56848;49.896;11.424;2022-12-10T16:52:41;-1.50;99.90
12889;DHT22;56848;49.896;11.424;2022-12-10T16:55:15;-1.50;99.90
12889;DHT22;56848;49.896;11.424;2022-12-10T16:57:41;-1.50;99.90
12889;DHT22;56848;49.896;11.424;2022-12-10T17:00:09;-1.60;99.90
12889;DHT22;56848;49.896;11.424;2022-12-10T17:02:35;-1.60;99.90
12889;DHT22;56848;49.896;11.424;2022-12-10T17:05:00;-1.60;99.90
12889;DHT22;56848;49.896;11.424;2022-12-10T17:07:26;-1.60;99.90
12889;DHT22;56848;49.896;11.424;2022-12-10T17:09:51;-1.60;99.90
12889;DHT22;56848;49.896;11.424;2022-12-10T17:12:17;-1.70;99.90
12889;DHT22;56848;49.896;11.424;2022-12-10T17:17:11;-1.70;99.90
12889;DHT22;56848;49.896;11.424;2022-12-10T17:19:38;-1.70;99.90
12889;DHT22;56848;49.896;11.424;2022-12-10T17:22:05;-1.70;99.90
12889;DHT22;56848;49.896;11.424;2022-12-10T17:24:32;-1.70;99.90
12889;DHT22;56848;49.896;11.424;2022-12-10T17:27:12;-1.70;99.90
12889;DHT22;56848;49.896;11.424;2022-12-10T17:29:41;-1.70;99.90
12889;DHT22;56848;49.896;11.424;2022-12-10T17:32:12;-1.70;99.90
12889;DHT22;56848;49.896;11.424;2022-12-10T17:34:39;-1.70;99.90
12889;DHT22;56848;49.896;11.424;2022-12-10T17:37:14;-1.70;99.90
12889;DHT22;56848;49.896;11.424;2022-12-10T17:39:41;-1.80;99.90
12889;DHT22;56848;49.896;11.424;2022-12-10T17:42:06;-1.80;99.90
12889;DHT22;56848;49.896;11.424;2022-12-10T17:44:36;-1.80;99.90
12889;DHT22;56848;49.896;11.424;2022-12-10T17:47:19;-1.70;99.90
12889;DHT22;56848;49.896;11.424;2022-12-10T17:49:45;-1.70;99.90
12889;DHT22;56848;49.896;11.424;2022-12-10T17:52:11;-1.70;99.90
12889;DHT22;56848;49.896;11.424;2022-12-10T17:54:36;-1.80;99.90
12889;DHT22;56848;49.896;11.424;2022-12-10T17:57:04;-1.80;99.90
12889;DHT22;56848;49.896;11.424;2022-12-10T17:59:34;-1.90;99.90
12889;DHT22;56848;49.896;11.424;2022-12-10T18:02:00;-1.90;99.90
12889;DHT22;56848;49.896;11.424;2022-12-10T18:04:26;-1.90;99.90
12889;DHT22;56848;49.896;11.424;2022-12-10T18:06:51;-1.90;99.90
12889;DHT22;56848;49.896;11.424;2022-12-10T18:09:17;-1.80;99.90
12889;DHT22;56848;49.896;11.424;2022-12-10T18:11:42;-1.90;99.90
12889;DHT22;56848;49.896;11.424;2022-12-10T18:14:10;-2.00;99.90
12889;DHT22;56848;49.896;11.424;2022-12-10T18:16:36;-2.00;99.90
12889;DHT22;56848;49.896;11.424;2022-12-10T18:19:06;-1.90;99.90
12889;DHT22;56848;49.896;11.424;2022-12-10T18:21:32;-1.90;99.90
12889;DHT22;56848;49.896;11.424;2022-12-10T18:23:57;-2.00;99.90
12889;DHT22;56848;49.896;11.424;2022-12-10T18:26:24;-2.10;99.90
12889;DHT22;56848;49.896;11.424;2022-12-10T18:28:56;-1.90;99.90
12889;DHT22;56848;49.896;11.424;2022-12-10T18:31:27;-2.00;99.90
12889;DHT22;56848;49.896;11.424;2022-12-10T18:33:56;-2.00;99.90
12889;DHT22;56848;49.896;11.424;2022-12-10T18:36:26;-2.10;99.90
12889;DHT22;56848;49.896;11.424;2022-12-10T18:38:53;-2.10;99.90
12889;DHT22;56848;49.896;11.424;2022-12-10T18:41:20;-2.30;99.90
12889;DHT22;56848;49.896;11.424;2022-12-10T18:43:46;-2.30;99.90
12889;DHT22;56848;49.896;11.424;2022-12-10T18:46:23;-2.30;99.90
12889;DHT22;56848;49.896;11.424;2022-12-10T18:48:49;-2.30;99.90
12889;DHT22;56848;49.896;11.424;2022-12-10T18:51:15;-2.30;99.90
12889;DHT22;56848;49.896;11.424;2022-12-10T18:53:42;-2.40;99.90
12889;DHT22;56848;49.896;11.424;2022-12-10T18:56:12;-2.30;99.90
12889;DHT22;56848;49.896;11.424;2022-12-10T18:58:38;-2.30;99.90
12889;DHT22;56848;49.896;11.424;2022-12-10T19:01:04;-2.30;99.90
12889;DHT22;56848;49.896;11.424;2022-12-10T19:03:32;-2.20;99.90
12889;DHT22;56848;49.896;11.424;2022-12-10T19:05:58;-2.10;99.90
12889;DHT22;56848;49.896;11.424;2022-12-10T19:08:23;-2.10;99.90
12889;DHT22;56848;49.896;11.424;2022-12-10T19:10:49;-2.20;99.90
12889;DHT22;56848;49.896;11.424;2022-12-10T19:13:14;-2.30;99.90
12889;DHT22;56848;49.896;11.424;2022-12-10T19:15:40;-2.30;99.90
12889;DHT22;56848;49.896;11.424;2022-12-10T19:18:07;-2.40;99.90
12889;DHT22;56848;49.896;11.424;2022-12-10T19:20:33;-2.70;99.90
12889;DHT22;56848;49.896;11.424;2022-12-10T19:22:59;-2.70;99.90
12889;DHT22;56848;49.896;11.424;2022-12-10T19:25:25;-2.80;99.90
12889;DHT22;56848;49.896;11.424;2022-12-10T19:27:50;-2.90;99.90
12889;DHT22;56848;49.896;11.424;2022-12-10T19:30:19;-3.00;99.90
12889;DHT22;56848;49.896;11.424;2022-12-10T19:32:44;-3.20;99.90
12889;DHT22;56848;49.896;11.424;2022-12-10T19:35:11;-3.20;99.90
12889;DHT22;56848;49.896;11.424;2022-12-10T19:37:37;-3.20;99.90
12889;DHT22;56848;49.896;11.424;2022-12-10T19:40:04;-3.30;99.90
12889;DHT22;56848;49.896;11.424;2022-12-10T19:42:30;-3.30;99.90
12889;DHT22;56848;49.896;11.424;2022-12-10T19:44:55;-3.40;99.90
12889;DHT22;56848;49.896;11.424;2022-12-10T19:47:22;-3.50;99.90
12889;DHT22;56848;49.896;11.424;2022-12-10T19:49:47;-3.50;99.90
12889;DHT22;56848;49.896;11.424;2022-12-10T19:52:13;-3.50;99.90
12889;DHT22;56848;49.896;11.424;2022-12-10T19:54:38;-3.40;99.90
12889;DHT22;56848;49.896;11.424;2022-12-10T19:57:04;-3.40;99.90
12889;DHT22;56848;49.896;11.424;2022-12-10T19:59:30;-3.10;99.90
12889;DHT22;56848;49.896;11.424;2022-12-10T20:01:55;-3.10;99.90
12889;DHT22;56848;49.896;11.424;2022-12-10T20:04:21;-3.10;99.90
12889;DHT22;56848;49.896;11.424;2022-12-10T20:06:48;-3.20;99.90
12889;DHT22;56848;49.896;11.424;2022-12-10T20:09:24;-3.30;99.90
12889;DHT22;56848;49.896;11.424;2022-12-10T20:11:53;-3.30;99.90
12889;DHT22;56848;49.896;11.424;2022-12-10T20:14:19;-3.30;99.90
12889;DHT22;56848;49.896;11.424;2022-12-10T20:16:47;-3.40;99.90
12889;DHT22;56848;49.896;11.424;2022-12-10T20:19:15;-3.40;99.90
12889;DHT22;56848;49.896;11.424;2022-12-10T20:21:41;-3.50;99.90
12889;DHT22;56848;49.896;11.424;2022-12-10T20:24:07;-3.40;99.90
12889;DHT22;56848;49.896;11.424;2022-12-10T20:26:35;-3.40;99.90
12889;DHT22;56848;49.896;11.424;2022-12-10T20:29:02;-3.30;99.90
12889;DHT22;56848;49.896;11.424;2022-12-10T20:31:28;-3.20;99.90
12889;DHT22;56848;49.896;11.424;2022-12-10T20:33:54;-3.30;99.90
12889;DHT22;56848;49.896;11.424;2022-12-10T20:36:22;-3.20;99.90
12889;DHT22;56848;49.896;11.424;2022-12-10T20:38:48;-3.00;99.90
12889;DHT22;56848;49.896;11.424;2022-12-10T20:41:16;-2.80;99.90
12889;DHT22;56848;49.896;11.424;2022-12-10T20:43:42;-2.80;99.90
12889;DHT22;56848;49.896;11.424;2022-12-10T20:48:38;-2.70;99.90
12889;DHT22;56848;49.896;11.424;2022-12-10T20:51:03;-2.70;99.90
12889;DHT22;56848;49.896;11.424;2022-12-10T20:53:29;-2.70;99.90
12889;DHT22;56848;49.896;11.424;2022-12-10T20:55:54;-2.60;99.90
12889;DHT22;56848;49.896;11.424;2022-12-10T20:58:21;-2.60;99.90
12889;DHT22;56848;49.896;11.424;2022-12-10T21:00:46;-2.70;99.90
12889;DHT22;56848;49.896;11.424;2022-12-10T21:03:12;-2.60;99.90
12889;DHT22;56848;49.896;11.424;2022-12-10T21:05:37;-2.50;99.90
12889;DHT22;56848;49.896;11.424;2022-12-10T21:08:03;-2.50;99.90
12889;DHT22;56848;49.896;11.424;2022-12-10T21:10:32;-2.50;99.90
12889;DHT22;56848;49.896;11.424;2022-12-10T21:13:17;-2.50;99.90
12889;DHT22;56848;49.896;11.424;2022-12-10T21:15:43;-2.50;99.90
12889;DHT22;56848;49.896;11.424;2022-12-10T21:18:09;-2.50;99.90
12889;DHT22;56848;49.896;11.424;2022-12-10T21:20:36;-2.60;99.90
12889;DHT22;56848;49.896;11.424;2022-12-10T21:23:02;-2.50;99.90
12889;DHT22;56848;49.896;11.424;2022-12-10T21:25:28;-2.60;99.90
12889;DHT22;56848;49.896;11.424;2022-12-10T21:27:57;-2.60;99.90
12889;DHT22;56848;49.896;11.424;2022-12-10T21:30:23;-2.70;99.90
12889;DHT22;56848;49.896;11.424;2022-12-10T21:32:49;-2.80;99.90
12889;DHT22;56848;49.896;11.424;2022-12-10T21:35:14;-2.80;99.90
12889;DHT22;56848;49.896;11.424;2022-12-10T21:37:40;-2.90;99.90
12889;DHT22;56848;49.896;11.424;2022-12-10T21:40:06;-3.00;99.90
12889;DHT22;56848;49.896;11.424;2022-12-10T21:42:33;-3.00;99.90
12889;DHT22;56848;49.896;11.424;2022-12-10T21:45:17;-3.00;99.90
12889;DHT22;56848;49.896;11.424;2022-12-10T21:47:42;-2.90;99.90
12889;DHT22;56848;49.896;11.424;2022-12-10T21:50:09;-2.90;99.90
12889;DHT22;56848;49.896;11.424;2022-12-10T21:52:35;-2.80;99.90
12889;DHT22;56848;49.896;11.424;2022-12-10T21:55:01;-2.80;99.90
12889;DHT22;56848;49.896;11.424;2022-12-10T21:57:26;-2.80;99.90
12889;DHT22;56848;49.896;11.424;2022-12-10T21:59:52;-2.90;99.90
12889;DHT22;56848;49.896;11.424;2022-12-10T22:02:17;-3.00;99.90
12889;DHT22;56848;49.896;11.424;2022-12-10T22:04:43;-3.10;99.90
12889;DHT22;56848;49.896;11.424;2022-12-10T22:07:08;-3.30;99.90
12889;DHT22;56848;49.896;11.424;2022-12-10T22:09:34;-3.30;99.90
